Louisburg, NC

10:39 PM EST on December 27, 2014 (GMT -0500)
Raleigh-Durham International | Change Station
CLOSE
Current Station
Airport
Location: Raleigh-Durham Airport,
Elevation: 436 ft
Nearby Weather Stations

Elev 436 ft 35.89 °N, 78.78 °W | Updated 48 minutes ago

Mostly Cloudy
Mostly Cloudy
50 °F
Feels Like 50 °F
N
0
Wind Variable Wind from North

Today
High -- | Low -- °F
--% Chance of Precip.
Yesterday
High -- | Low -- °F
Precip. -- in
7:22 AM 5:05 PM
Waxing Crescent, 43% visible
Pressure 30.23 in
Visibility 10.0 miles
Clouds Few 13000 ft
Mostly Cloudy 25000 ft
Dew Point 37 °F
Humidity 61%
Rainfall 0.00 in
Snow Depth Not available.
UV 0 out of 12
Pollen 1.40 out of 12
Air Quality Not available.
Flu Activity Not available.
METAR KRDU 280251Z 00000KT 10SM FEW130 BKN250 10/03 A3022 RMK AO2 SLP235 T01000028 56005

More Conditions Fewer Conditions

Pressure 30.23 in
Visibility 10.0 miles
Clouds Few 13000 ft
Mostly Cloudy 25000 ft
Dew Point 37 °F
Humidity 61%
Rainfall 0.00 in
Snow Depth Not available.
UV 0 out of 12
Pollen 1.40 out of 12
Air Quality Not available.
Flu Activity Not available.
METAR KRDU 280251Z 00000KT 10SM FEW130 BKN250 10/03 A3022 RMK AO2 SLP235 T01000028 56005

More Conditions Fewer Conditions

10-Day Weather Forecast

Almanac

Astronomy

Dec. 27, 2014 Rise Set
Actual Time
Civil Twilight
Nautical Twilight
Astronomical Twilight
Moon
Length of Visible Light
Length of Day
Tomorrow will be .
, % of the Moon is Illuminated

Today's Extremes

State Highs State Lows

Community

WunderPhotos

Upload Photos

1,781,180 photos uploaded!

WunderBlogs® & News

Nearby

Air Quality

  Air Quality AQ Index Pollutant
Not available.

Snow Depth

Station Depth Elevation

Earthquake Activity

City Distance Mag. Time & Date
Minimum magnitude displayed is 2.5.

Coastal Water Temperatures

Place Temperature

Nearby Weather Stations